Time,TemperatureF,DewpointF,PressureIn,WindDirection,WindDirectionDegrees,WindSpeedMPH,WindSpeedGustMPH,Humidity,HourlyPrecipIn,Conditions,Clouds,dailyrainin,SoftwareType,DateUTC
2013-02-28 00:01:00,32.0,31.0,29.71,NW,313,8.0,12.0,97,0.00,,,0.17,,2013-02-28 05:01:00,
2013-02-28 00:11:00,32.0,31.0,29.71,NW,313,8.0,12.0,97,0.00,,,0.17,,2013-02-28 05:11:00,
2013-02-28 00:22:00,32.0,31.0,29.71,NW,311,8.0,13.0,96,0.00,,,0.16,,2013-02-28 05:22:00,
2013-02-28 00:31:00,32.0,31.0,29.71,NNW,332,7.0,12.0,96,0.00,,,0.16,,2013-02-28 05:31:00,
2013-02-28 00:42:00,32.0,31.0,29.71,NNW,332,7.0,12.0,96,0.00,,,0.16,,2013-02-28 05:42:00,
2013-02-28 00:52:00,32.0,31.0,29.71,NW,315,8.0,13.0,96,0.00,,,0.16,,2013-02-28 05:52:00,
2013-02-28 01:01:00,32.0,31.0,29.71,NW,325,10.0,15.0,95,0.00,,,0.16,,2013-02-28 06:01:00,
2013-02-28 01:11:00,32.0,31.0,29.71,NW,325,10.0,15.0,95,0.00,,,0.16,,2013-02-28 06:11:00,
2013-02-28 01:22:00,32.0,31.0,29.71,NW,318,10.0,15.0,95,0.00,,,0.16,,2013-02-28 06:22:00,
2013-02-28 01:32:00,32.0,31.0,29.72,NW,316,8.0,12.0,95,0.00,,,0.16,,2013-02-28 06:32:00,
2013-02-28 01:42:00,32.0,31.0,29.72,NW,316,8.0,12.0,95,0.00,,,0.16,,2013-02-28 06:42:00,
2013-02-28 01:52:00,32.0,30.0,29.72,NW,325,8.0,13.0,94,0.00,,,0.16,,2013-02-28 06:52:00,
2013-02-28 02:01:00,32.0,30.0,29.73,NW,311,7.0,11.0,94,0.00,,,0.16,,2013-02-28 07:01:00,
2013-02-28 02:11:00,32.0,30.0,29.73,NW,311,7.0,11.0,94,0.00,,,0.16,,2013-02-28 07:11:00,
2013-02-28 02:21:00,32.0,30.0,29.73,NNW,334,7.0,13.0,94,0.00,,,0.15,,2013-02-28 07:21:00,
2013-02-28 02:31:00,33.0,31.0,29.74,NW,316,8.0,12.0,94,0.00,,,0.15,,2013-02-28 07:31:00,
2013-02-28 02:41:00,33.0,31.0,29.74,NW,316,8.0,12.0,94,0.00,,,0.15,,2013-02-28 07:41:00,
2013-02-28 02:52:00,33.0,31.0,29.74,NNW,329,8.0,14.0,94,0.00,,,0.15,,2013-02-28 07:52:00,
2013-02-28 03:01:00,33.0,31.0,29.75,NNW,338,10.0,13.0,94,0.00,,,0.15,,2013-02-28 08:01:00,
2013-02-28 03:11:00,33.0,31.0,29.75,NNW,338,10.0,13.0,94,0.00,,,0.15,,2013-02-28 08:11:00,
2013-02-28 03:22:00,33.0,31.0,29.74,WNW,302,8.0,12.0,94,0.00,,,0.15,,2013-02-28 08:22:00,
2013-02-28 03:32:00,33.0,31.0,29.75,WNW,295,7.0,13.0,94,0.00,,,0.15,,2013-02-28 08:32:00,
2013-02-28 03:42:00,33.0,31.0,29.75,WNW,295,7.0,13.0,94,0.00,,,0.15,,2013-02-28 08:42:00,
2013-02-28 03:53:00,33.0,31.0,29.75,NW,319,8.0,12.0,94,0.00,,,0.15,,2013-02-28 08:53:00,
2013-02-28 04:03:00,33.0,32.0,29.75,NW,323,8.0,13.0,95,0.00,,,0.15,,2013-02-28 09:03:00,
2013-02-28 04:11:00,33.0,32.0,29.75,NW,323,8.0,13.0,95,0.00,,,0.15,,2013-02-28 09:11:00,
2013-02-28 04:22:00,32.0,31.0,29.75,NW,319,7.0,12.0,95,0.00,,,0.15,,2013-02-28 09:22:00,
2013-02-28 04:32:00,32.0,31.0,29.76,NW,325,6.0,12.0,96,0.00,,,0.14,,2013-02-28 09:32:00,
2013-02-28 04:42:00,32.0,31.0,29.76,NW,325,6.0,12.0,96,0.00,,,0.14,,2013-02-28 09:42:00,
2013-02-28 04:52:00,32.0,31.0,29.77,NW,325,6.0,12.0,96,0.00,,,0.14,,2013-02-28 09:52:00,
2013-02-28 05:02:00,32.0,31.0,29.77,NW,304,6.0,12.0,97,0.00,,,0.14,,2013-02-28 10:02:00,
2013-02-28 05:11:00,32.0,31.0,29.77,NW,304,6.0,12.0,97,0.00,,,0.14,,2013-02-28 10:11:00,
2013-02-28 05:22:00,32.0,31.0,29.77,NW,304,6.0,12.0,97,0.00,,,0.14,,2013-02-28 10:22:00,
2013-02-28 05:32:00,32.0,31.0,29.77,NW,304,6.0,12.0,97,0.00,,,0.14,,2013-02-28 10:32:00,
2013-02-28 05:42:00,32.0,31.0,29.77,NW,304,6.0,12.0,97,0.00,,,0.14,,2013-02-28 10:42:00,
2013-02-28 08:32:00,32.0,31.0,29.85,NNW,329,11.0,15.0,97,0.00,,,0.13,,2013-02-28 13:32:00,
2013-02-28 08:42:00,32.0,31.0,29.85,NNW,329,11.0,15.0,97,0.00,,,0.13,,2013-02-28 13:42:00,
2013-02-28 08:52:00,33.0,32.0,29.86,NNW,334,8.0,14.0,97,0.00,,,0.13,,2013-02-28 13:52:00,
2013-02-28 09:01:00,33.0,32.0,29.87,North,349,8.0,11.0,96,0.00,,,0.13,,2013-02-28 14:01:00,
2013-02-28 09:11:00,33.0,32.0,29.87,North,8,9.0,14.0,96,0.00,,,0.13,,2013-02-28 14:11:00,
2013-02-28 09:22:00,33.0,32.0,29.87,North,8,9.0,14.0,96,0.00,,,0.13,,2013-02-28 14:22:00,
2013-02-28 09:32:00,33.0,32.0,29.88,NW,326,9.0,14.0,95,0.00,,,0.13,,2013-02-28 14:32:00,
2013-02-28 09:42:00,33.0,32.0,29.88,North,350,10.0,16.0,95,0.00,,,0.13,,2013-02-28 14:42:00,
2013-02-28 09:52:00,33.0,32.0,29.88,North,350,10.0,16.0,95,0.00,,,0.13,,2013-02-28 14:52:00,
2013-02-28 10:02:00,33.0,31.0,29.88,North,349,10.0,18.0,94,0.00,,,0.13,,2013-02-28 15:02:00,
2013-02-28 10:11:00,34.0,32.0,29.89,North,11,9.0,15.0,94,0.00,,,0.12,,2013-02-28 15:11:00,
2013-02-28 10:21:00,34.0,32.0,29.89,North,11,9.0,15.0,94,0.00,,,0.12,,2013-02-28 15:21:00,
2013-02-28 10:32:00,34.0,32.0,29.89,NNW,329,8.0,14.0,93,0.00,,,0.12,,2013-02-28 15:32:00,
2013-02-28 10:41:00,34.0,32.0,29.89,NNW,329,8.0,14.0,93,0.00,,,0.12,,2013-02-28 15:41:00,
2013-02-28 10:52:00,34.0,32.0,29.90,NW,326,9.0,15.0,92,0.01,,,0.13,,2013-02-28 15:52:00,
2013-02-28 11:01:00,34.0,32.0,29.91,NNW,341,9.0,14.0,92,0.01,,,0.13,,2013-02-28 16:01:00,
2013-02-28 11:11:00,34.0,32.0,29.91,NNW,338,12.0,18.0,91,0.01,,,0.12,,2013-02-28 16:11:00,
2013-02-28 11:22:00,34.0,32.0,29.91,NNW,338,12.0,18.0,91,0.01,,,0.12,,2013-02-28 16:22:00,
2013-02-28 11:32:00,34.0,31.0,29.91,NW,308,9.0,17.0,90,0.02,,,0.13,,2013-02-28 16:32:00,
2013-02-28 11:42:00,34.0,31.0,29.91,NW,308,9.0,17.0,90,0.02,,,0.13,,2013-02-28 16:42:00,
2013-02-28 11:52:00,34.0,32.0,29.91,NNW,335,9.0,17.0,91,0.02,,,0.14,,2013-02-28 16:52:00,
2013-02-28 12:01:00,35.0,32.0,29.92,NNW,345,10.0,16.0,90,0.02,,,0.14,,2013-02-28 17:01:00,
2013-02-28 12:11:00,35.0,32.0,29.93,NW,316,11.0,15.0,89,0.03,,,0.12,,2013-02-28 17:11:00,
2013-02-28 12:21:00,35.0,32.0,29.93,NW,316,11.0,15.0,89,0.03,,,0.12,,2013-02-28 17:21:00,
2013-02-28 12:32:00,35.0,32.0,29.93,NNW,332,11.0,14.0,89,0.03,,,0.13,,2013-02-28 17:32:00,
2013-02-28 12:42:00,35.0,32.0,29.93,NNW,332,11.0,14.0,89,0.03,,,0.13,,2013-02-28 17:42:00,
2013-02-28 12:52:00,35.0,32.0,29.93,NNE,22,11.0,15.0,88,0.02,,,0.13,,2013-02-28 17:52:00,
2013-02-28 13:02:00,35.0,32.0,29.93,North,9,9.0,14.0,88,0.03,,,0.14,,2013-02-28 18:02:00,
2013-02-28 13:11:00,35.0,32.0,29.93,North,359,11.0,17.0,88,0.02,,,0.12,,2013-02-28 18:11:00,
2013-02-28 13:22:00,35.0,32.0,29.93,North,359,11.0,17.0,88,0.02,,,0.12,,2013-02-28 18:22:00,
2013-02-28 13:32:00,35.0,32.0,29.93,NNW,340,11.0,16.0,87,0.01,,,0.12,,2013-02-28 18:32:00,
2013-02-28 13:42:00,35.0,32.0,29.93,NNW,338,9.0,13.0,87,0.02,,,0.13,,2013-02-28 18:42:00,
2013-02-28 13:52:00,35.0,32.0,29.93,NNW,338,9.0,13.0,87,0.02,,,0.13,,2013-02-28 18:52:00,
2013-02-28 14:01:00,35.0,31.0,29.93,NNE,22,11.0,18.0,85,0.01,,,0.13,,2013-02-28 19:01:00,
2013-02-28 14:11:00,35.0,31.0,29.94,NNW,336,13.0,20.0,84,0.01,,,0.12,,2013-02-28 19:11:00,
2013-02-28 14:21:00,35.0,31.0,29.94,NNW,336,13.0,20.0,84,0.01,,,0.12,,2013-02-28 19:21:00,
2013-02-28 14:32:00,36.0,31.0,29.94,NNW,347,12.0,16.0,83,0.01,,,0.12,,2013-02-28 19:32:00,
2013-02-28 14:41:00,36.0,31.0,29.94,NNW,347,12.0,16.0,83,0.01,,,0.12,,2013-02-28 19:41:00,
2013-02-28 14:52:00,35.0,30.0,29.94,NNE,28,10.0,17.0,83,0.00,,,0.12,,2013-02-28 19:52:00,
2013-02-28 15:01:00,35.0,30.0,29.95,NNW,336,10.0,17.0,82,0.00,,,0.12,,2013-02-28 20:01:00,
2013-02-28 15:12:00,35.0,30.0,29.95,NNW,336,10.0,17.0,82,0.00,,,0.12,,2013-02-28 20:12:00,
2013-02-28 15:21:00,36.0,31.0,29.96,NE,34,8.0,14.0,82,0.00,,,0.10,,2013-02-28 20:21:00,
2013-02-28 15:32:00,36.0,31.0,29.96,NNE,22,7.0,14.0,82,0.00,,,0.10,,2013-02-28 20:32:00,
2013-02-28 15:42:00,36.0,31.0,29.96,NNE,22,7.0,14.0,82,0.00,,,0.10,,2013-02-28 20:42:00,
2013-02-28 15:52:00,35.0,29.0,29.97,NNE,20,10.0,15.0,80,0.00,,,0.10,,2013-02-28 20:52:00,
2013-02-28 16:01:00,35.0,30.0,29.98,North,11,13.0,18.0,81,0.00,,,0.10,,2013-02-28 21:01:00,
2013-02-28 16:11:00,35.0,30.0,29.98,North,11,13.0,18.0,81,0.00,,,0.10,,2013-02-28 21:11:00,
2013-02-28 16:22:00,35.0,30.0,29.98,North,7,10.0,18.0,81,0.00,,,0.10,,2013-02-28 21:22:00,
2013-02-28 16:32:00,34.0,28.0,29.98,NNE,12,10.0,15.0,80,0.00,,,0.09,,2013-02-28 21:32:00,
2013-02-28 16:41:00,34.0,28.0,29.98,NNE,12,10.0,15.0,80,0.00,,,0.09,,2013-02-28 21:41:00,
2013-02-28 16:51:00,34.0,29.0,29.99,North,355,9.0,15.0,81,0.00,,,0.09,,2013-02-28 21:51:00,
2013-02-28 17:01:00,34.0,29.0,30.00,North,8,10.0,16.0,82,0.00,,,0.09,,2013-02-28 22:01:00,
2013-02-28 17:11:00,34.0,29.0,30.01,NNE,25,11.0,16.0,83,0.00,,,0.08,,2013-02-28 22:11:00,
2013-02-28 17:21:00,34.0,29.0,30.01,NNE,25,11.0,16.0,83,0.00,,,0.08,,2013-02-28 22:21:00,
2013-02-28 17:32:00,33.0,29.0,30.01,NNW,334,8.0,18.0,86,0.00,,,0.08,,2013-02-28 22:32:00,
2013-02-28 17:41:00,33.0,29.0,30.01,NNW,334,8.0,18.0,86,0.00,,,0.08,,2013-02-28 22:41:00,
2013-02-28 17:52:00,32.0,28.0,30.01,NNE,23,10.0,18.0,86,0.00,,,0.08,,2013-02-28 22:52:00,
2013-02-28 18:01:00,32.0,29.0,30.02,NNE,27,12.0,18.0,88,0.00,,,0.08,,2013-02-28 23:01:00,
2013-02-28 18:11:00,32.0,28.0,30.02,North,5,9.0,15.0,86,0.00,,,0.07,,2013-02-28 23:11:00,
2013-02-28 18:22:00,32.0,28.0,30.02,North,5,9.0,15.0,86,0.00,,,0.07,,2013-02-28 23:22:00,
2013-02-28 18:32:00,32.0,28.0,30.03,NNE,27,8.0,15.0,85,0.00,,,0.07,,2013-02-28 23:32:00,
2013-02-28 18:41:00,32.0,28.0,30.03,NNE,27,8.0,15.0,85,0.00,,,0.07,,2013-02-28 23:41:00,
2013-02-28 18:53:00,32.0,27.0,30.03,NNE,20,6.0,13.0,83,0.00,,,0.07,,2013-02-28 23:53:00,
2013-02-28 19:01:00,32.0,28.0,30.04,NNW,343,9.0,15.0,85,0.00,,,0.07,,2013-03-01 00:01:00,
2013-02-28 19:11:00,32.0,28.0,30.04,NNW,343,9.0,15.0,85,0.00,,,0.07,,2013-03-01 00:11:00,
2013-02-28 19:22:00,31.0,28.0,30.05,NNW,339,10.0,18.0,87,0.00,,,0.07,,2013-03-01 00:22:00,
2013-02-28 19:32:00,31.0,28.0,30.05,NNE,12,9.0,14.0,87,0.00,,,0.07,,2013-03-01 00:32:00,
2013-02-28 19:41:00,31.0,28.0,30.05,NNE,12,9.0,14.0,87,0.00,,,0.07,,2013-03-01 00:41:00,
2013-02-28 19:52:00,31.0,28.0,30.05,NNE,15,6.0,14.0,87,0.00,,,0.07,,2013-03-01 00:52:00,
2013-02-28 20:01:00,31.0,27.0,30.05,NNE,24,9.0,14.0,86,0.00,,,0.07,,2013-03-01 01:01:00,
2013-02-28 20:11:00,31.0,27.0,30.06,NNE,14,8.0,12.0,86,0.00,,,0.07,,2013-03-01 01:11:00,
2013-02-28 20:21:00,31.0,27.0,30.06,NNE,14,8.0,12.0,86,0.00,,,0.07,,2013-03-01 01:21:00,
2013-02-28 20:32:00,31.0,27.0,30.06,NNE,22,11.0,15.0,84,0.00,,,0.07,,2013-03-01 01:32:00,
2013-02-28 20:42:00,31.0,27.0,30.06,NNE,22,11.0,15.0,84,0.00,,,0.07,,2013-03-01 01:42:00,
2013-02-28 20:52:00,31.0,26.0,30.06,NNE,30,11.0,17.0,81,0.00,,,0.07,,2013-03-01 01:52:00,
2013-02-28 21:01:00,31.0,26.0,30.06,North,349,7.0,10.0,80,0.00,,,0.07,,2013-03-01 02:01:00,
2013-02-28 21:11:00,31.0,25.0,30.06,North,350,9.0,14.0,77,0.00,,,0.07,,2013-03-01 02:11:00,
2013-02-28 21:21:00,31.0,25.0,30.06,North,350,9.0,14.0,77,0.00,,,0.07,,2013-03-01 02:21:00,
2013-02-28 21:31:00,31.0,26.0,30.06,NNW,347,8.0,13.0,80,0.00,,,0.07,,2013-03-01 02:31:00,
2013-02-28 21:42:00,31.0,26.0,30.06,NNW,347,8.0,13.0,80,0.00,,,0.07,,2013-03-01 02:42:00,
2013-02-28 21:52:00,31.0,26.0,30.05,NNE,24,8.0,12.0,81,0.00,,,0.07,,2013-03-01 02:52:00,
2013-02-28 22:01:00,31.0,26.0,30.06,North,354,10.0,14.0,82,0.00,,,0.07,,2013-03-01 03:01:00,
2013-02-28 22:11:00,31.0,26.0,30.06,NNW,345,7.0,14.0,83,0.00,,,0.07,,2013-03-01 03:11:00,
2013-02-28 22:21:00,31.0,26.0,30.06,NNW,345,7.0,14.0,83,0.00,,,0.07,,2013-03-01 03:21:00,
2013-02-28 22:32:00,30.0,25.0,30.06,NNW,347,11.0,15.0,82,0.00,,,0.07,,2013-03-01 03:32:00,
2013-02-28 22:42:00,30.0,25.0,30.06,NNW,347,11.0,15.0,82,0.00,,,0.07,,2013-03-01 03:42:00,
2013-02-28 22:52:00,30.0,25.0,30.06,NNW,336,10.0,19.0,82,0.00,,,0.07,,2013-03-01 03:52:00,
2013-02-28 23:01:00,30.0,25.0,30.07,North,349,7.0,14.0,82,0.00,,,0.07,,2013-03-01 04:01:00,
2013-02-28 23:11:00,30.0,25.0,30.07,North,349,7.0,14.0,82,0.00,,,0.07,,2013-03-01 04:11:00,
2013-02-28 23:21:00,30.0,25.0,30.07,North,5,11.0,16.0,81,0.00,,,0.07,,2013-03-01 04:21:00,
2013-02-28 23:32:00,29.0,24.0,30.07,NNE,24,5.0,11.0,82,0.00,,,0.07,,2013-03-01 04:32:00,
2013-02-28 23:42:00,29.0,24.0,30.07,NNE,24,5.0,11.0,82,0.00,,,0.07,,2013-03-01 04:42:00,
2013-02-28 23:52:00,29.0,24.0,30.07,NNW,340,5.0,10.0,82,0.00,,,0.07,,2013-03-01 04:52:00,